sensor_id;sensor_type;location;lat;lon;timestamp;temperature;humidity
51327;DHT22;37412;52.836;6.362;2023-07-09T00:00:31;22.80;94.70
51327;DHT22;37412;52.836;6.362;2023-07-09T00:03:18;22.90;94.80
51327;DHT22;37412;52.836;6.362;2023-07-09T00:06:07;22.80;94.90
51327;DHT22;37412;52.836;6.362;2023-07-09T00:08:53;22.70;94.20
51327;DHT22;37412;52.836;6.362;2023-07-09T00:11:40;22.70;93.90
51327;DHT22;37412;52.836;6.362;2023-07-09T00:14:26;22.60;94.10
51327;DHT22;37412;52.836;6.362;2023-07-09T00:17:27;22.60;94.50
51327;DHT22;37412;52.836;6.362;2023-07-09T00:20:16;22.60;94.20
51327;DHT22;37412;52.836;6.362;2023-07-09T00:23:03;22.50;94.40
51327;DHT22;37412;52.836;6.362;2023-07-09T00:25:50;22.50;94.10
51327;DHT22;37412;52.836;6.362;2023-07-09T00:28:36;22.50;93.80
51327;DHT22;37412;52.836;6.362;2023-07-09T00:31:22;22.40;94.80
51327;DHT22;37412;52.836;6.362;2023-07-09T00:34:10;22.40;94.60
51327;DHT22;37412;52.836;6.362;2023-07-09T00:36:57;22.30;94.70
51327;DHT22;37412;52.836;6.362;2023-07-09T00:39:44;22.30;94.50
51327;DHT22;37412;52.836;6.362;2023-07-09T00:42:30;22.30;95.10
51327;DHT22;37412;52.836;6.362;2023-07-09T00:45:25;22.30;95.30
51327;DHT22;37412;52.836;6.362;2023-07-09T00:48:14;22.20;95.00
51327;DHT22;37412;52.836;6.362;2023-07-09T00:51:12;22.10;95.00
51327;DHT22;37412;52.836;6.362;2023-07-09T00:54:03;22.10;95.10
51327;DHT22;37412;52.836;6.362;2023-07-09T00:56:53;22.10;95.60
51327;DHT22;37412;52.836;6.362;2023-07-09T00:59:41;22.00;95.40
51327;DHT22;37412;52.836;6.362;2023-07-09T01:02:27;22.00;95.20
51327;DHT22;37412;52.836;6.362;2023-07-09T01:05:15;22.00;95.10
51327;DHT22;37412;52.836;6.362;2023-07-09T01:08:03;21.90;95.10
51327;DHT22;37412;52.836;6.362;2023-07-09T01:10:49;21.90;95.50
51327;DHT22;37412;52.836;6.362;2023-07-09T01:13:35;21.80;95.60
51327;DHT22;37412;52.836;6.362;2023-07-09T01:16:24;21.80;95.30
51327;DHT22;37412;52.836;6.362;2023-07-09T01:19:10;21.80;95.80
51327;DHT22;37412;52.836;6.362;2023-07-09T01:22:00;21.70;96.20
51327;DHT22;37412;52.836;6.362;2023-07-09T01:27:47;21.70;96.60
51327;DHT22;37412;52.836;6.362;2023-07-09T01:30:36;21.60;95.80
51327;DHT22;37412;52.836;6.362;2023-07-09T01:33:23;21.60;96.10
51327;DHT22;37412;52.836;6.362;2023-07-09T01:36:15;21.50;96.20
51327;DHT22;37412;52.836;6.362;2023-07-09T01:39:01;21.50;96.40
51327;DHT22;37412;52.836;6.362;2023-07-09T01:41:47;21.40;96.20
51327;DHT22;37412;52.836;6.362;2023-07-09T01:44:35;21.40;96.90
51327;DHT22;37412;52.836;6.362;2023-07-09T01:47:23;21.30;97.00
51327;DHT22;37412;52.836;6.362;2023-07-09T01:50:13;21.30;97.20
51327;DHT22;37412;52.836;6.362;2023-07-09T01:53:04;21.30;97.10
51327;DHT22;37412;52.836;6.362;2023-07-09T01:55:50;21.20;97.40
51327;DHT22;37412;52.836;6.362;2023-07-09T01:58:37;21.20;97.10
51327;DHT22;37412;52.836;6.362;2023-07-09T02:01:30;21.20;97.00
51327;DHT22;37412;52.836;6.362;2023-07-09T02:04:22;21.10;97.30
51327;DHT22;37412;52.836;6.362;2023-07-09T02:07:08;21.10;97.30
51327;DHT22;37412;52.836;6.362;2023-07-09T02:09:54;21.00;97.40
51327;DHT22;37412;52.836;6.362;2023-07-09T02:12:40;20.90;97.60
51327;DHT22;37412;52.836;6.362;2023-07-09T02:15:26;21.00;97.60
51327;DHT22;37412;52.836;6.362;2023-07-09T02:18:13;20.90;97.70
51327;DHT22;37412;52.836;6.362;2023-07-09T02:20:59;20.90;97.30
51327;DHT22;37412;52.836;6.362;2023-07-09T02:23:44;20.80;97.40
51327;DHT22;37412;52.836;6.362;2023-07-09T02:26:30;20.80;97.40
51327;DHT22;37412;52.836;6.362;2023-07-09T02:29:16;20.80;97.70
51327;DHT22;37412;52.836;6.362;2023-07-09T02:32:02;20.70;98.20
51327;DHT22;37412;52.836;6.362;2023-07-09T02:34:49;20.70;98.00
51327;DHT22;37412;52.836;6.362;2023-07-09T02:37:38;20.70;98.20
51327;DHT22;37412;52.836;6.362;2023-07-09T02:40:24;20.60;98.70
51327;DHT22;37412;52.836;6.362;2023-07-09T02:43:10;20.60;98.80
51327;DHT22;37412;52.836;6.362;2023-07-09T02:45:56;20.60;98.60
51327;DHT22;37412;52.836;6.362;2023-07-09T02:48:42;20.80;98.80
51327;DHT22;37412;52.836;6.362;2023-07-09T02:51:28;20.50;98.70
51327;DHT22;37412;52.836;6.362;2023-07-09T02:54:14;20.50;99.00
51327;DHT22;37412;52.836;6.362;2023-07-09T02:57:01;20.40;99.00
51327;DHT22;37412;52.836;6.362;2023-07-09T02:59:47;20.60;99.20
51327;DHT22;37412;52.836;6.362;2023-07-09T03:02:33;20.40;99.20
51327;DHT22;37412;52.836;6.362;2023-07-09T03:05:20;20.30;99.10
51327;DHT22;37412;52.836;6.362;2023-07-09T03:08:06;20.30;99.40
51327;DHT22;37412;52.836;6.362;2023-07-09T03:10:52;20.30;99.20
51327;DHT22;37412;52.836;6.362;2023-07-09T03:13:37;20.20;99.60
51327;DHT22;37412;52.836;6.362;2023-07-09T03:16:26;20.20;99.80
51327;DHT22;37412;52.836;6.362;2023-07-09T03:19:13;20.20;99.80
51327;DHT22;37412;52.836;6.362;2023-07-09T03:21:58;20.20;99.80
51327;DHT22;37412;52.836;6.362;2023-07-09T03:24:44;20.20;99.90
51327;DHT22;37412;52.836;6.362;2023-07-09T03:27:30;20.10;99.80
51327;DHT22;37412;52.836;6.362;2023-07-09T03:30:16;20.10;99.90
51327;DHT22;37412;52.836;6.362;2023-07-09T03:33:02;20.10;99.90
51327;DHT22;37412;52.836;6.362;2023-07-09T03:35:53;20.00;99.90
51327;DHT22;37412;52.836;6.362;2023-07-09T03:38:39;20.30;99.90
51327;DHT22;37412;52.836;6.362;2023-07-09T03:41:25;20.10;99.90
51327;DHT22;37412;52.836;6.362;2023-07-09T03:44:11;20.10;99.90
51327;DHT22;37412;52.836;6.362;2023-07-09T03:46:58;20.10;99.90
51327;DHT22;37412;52.836;6.362;2023-07-09T03:49:44;20.10;99.90
51327;DHT22;37412;52.836;6.362;2023-07-09T03:52:30;20.10;99.90
51327;DHT22;37412;52.836;6.362;2023-07-09T03:55:16;20.10;99.90
51327;DHT22;37412;52.836;6.362;2023-07-09T03:58:02;20.10;99.90
51327;DHT22;37412;52.836;6.362;2023-07-09T04:00:48;20.10;99.90
51327;DHT22;37412;52.836;6.362;2023-07-09T04:03:34;20.10;99.90
51327;DHT22;37412;52.836;6.362;2023-07-09T04:06:20;20.20;99.90
51327;DHT22;37412;52.836;6.362;2023-07-09T04:09:06;20.10;99.90
51327;DHT22;37412;52.836;6.362;2023-07-09T04:11:52;20.20;99.90
51327;DHT22;37412;52.836;6.362;2023-07-09T04:14:38;20.20;99.90
51327;DHT22;37412;52.836;6.362;2023-07-09T04:17:26;20.30;99.90
51327;DHT22;37412;52.836;6.362;2023-07-09T04:20:12;20.30;99.90
51327;DHT22;37412;52.836;6.362;2023-07-09T04:22:59;20.30;99.90
51327;DHT22;37412;52.836;6.362;2023-07-09T04:25:45;20.40;99.90
51327;DHT22;37412;52.836;6.362;2023-07-09T04:28:31;20.40;99.90
51327;DHT22;37412;52.836;6.362;2023-07-09T04:31:17;20.50;99.90
51327;DHT22;37412;52.836;6.362;2023-07-09T04:34:03;20.50;99.90
51327;DHT22;37412;52.836;6.362;2023-07-09T04:36:49;20.60;99.90
51327;DHT22;37412;52.836;6.362;2023-07-09T04:39:35;20.70;99.90
51327;DHT22;37412;52.836;6.362;2023-07-09T04:42:21;20.80;99.90
51327;DHT22;37412;52.836;6.362;2023-07-09T04:45:09;20.90;99.90
51327;DHT22;37412;52.836;6.362;2023-07-09T04:47:55;21.00;99.90
51327;DHT22;37412;52.836;6.362;2023-07-09T04:50:41;21.20;99.90
51327;DHT22;37412;52.836;6.362;2023-07-09T04:53:27;21.20;99.90
51327;DHT22;37412;52.836;6.362;2023-07-09T04:56:13;21.20;99.90
51327;DHT22;37412;52.836;6.362;2023-07-09T04:58:59;21.20;99.90
51327;DHT22;37412;52.836;6.362;2023-07-09T05:01:45;21.30;99.90
51327;DHT22;37412;52.836;6.362;2023-07-09T05:04:31;21.40;99.90
51327;DHT22;37412;52.836;6.362;2023-07-09T05:07:17;21.50;99.90
51327;DHT22;37412;52.836;6.362;2023-07-09T05:10:04;21.50;99.90
51327;DHT22;37412;52.836;6.362;2023-07-09T05:12:53;21.60;99.90
51327;DHT22;37412;52.836;6.362;2023-07-09T05:15:42;21.60;99.90
51327;DHT22;37412;52.836;6.362;2023-07-09T05:18:28;21.70;99.90
51327;DHT22;37412;52.836;6.362;2023-07-09T05:21:14;21.70;99.90
51327;DHT22;37412;52.836;6.362;2023-07-09T05:24:00;21.80;99.90
51327;DHT22;37412;52.836;6.362;2023-07-09T05:26:46;21.80;99.90
51327;DHT22;37412;52.836;6.362;2023-07-09T05:29:32;21.80;99.90
51327;DHT22;37412;52.836;6.362;2023-07-09T05:32:18;21.80;99.90
51327;DHT22;37412;52.836;6.362;2023-07-09T05:35:04;21.90;99.90
51327;DHT22;37412;52.836;6.362;2023-07-09T05:37:50;21.80;99.90
51327;DHT22;37412;52.836;6.362;2023-07-09T05:40:36;21.90;99.90
51327;DHT22;37412;52.836;6.362;2023-07-09T05:43:22;21.90;99.90
51327;DHT22;37412;52.836;6.362;2023-07-09T05:46:08;21.90;99.90
51327;DHT22;37412;52.836;6.362;2023-07-09T05:48:54;21.90;99.90
51327;DHT22;37412;52.836;6.362;2023-07-09T05:51:40;21.90;99.90
51327;DHT22;37412;52.836;6.362;2023-07-09T05:54:26;21.90;99.90
51327;DHT22;37412;52.836;6.362;2023-07-09T05:57:12;22.00;99.90
51327;DHT22;37412;52.836;6.362;2023-07-09T05:59:58;22.00;99.90
51327;DHT22;37412;52.836;6.362;2023-07-09T06:02:44;22.00;99.90
51327;DHT22;37412;52.836;6.362;2023-07-09T06:05:30;22.10;99.90
51327;DHT22;37412;52.836;6.362;2023-07-09T06:08:16;22.10;99.90
51327;DHT22;37412;52.836;6.362;2023-07-09T06:11:03;22.20;99.90
51327;DHT22;37412;52.836;6.362;2023-07-09T06:13:50;22.30;99.90
51327;DHT22;37412;52.836;6.362;2023-07-09T06:16:35;22.30;99.90
51327;DHT22;37412;52.836;6.362;2023-07-09T06:19:22;22.40;99.90
51327;DHT22;37412;52.836;6.362;2023-07-09T06:22:08;22.50;99.90
51327;DHT22;37412;52.836;6.362;2023-07-09T06:24:54;22.60;99.90
51327;DHT22;37412;52.836;6.362;2023-07-09T06:27:40;22.70;99.90
51327;DHT22;37412;52.836;6.362;2023-07-09T06:30:26;22.70;99.90
51327;DHT22;37412;52.836;6.362;2023-07-09T06:33:14;22.90;99.90
51327;DHT22;37412;52.836;6.362;2023-07-09T06:36:01;22.90;99.90
51327;DHT22;37412;52.836;6.362;2023-07-09T06:38:47;23.00;99.90
51327;DHT22;37412;52.836;6.362;2023-07-09T06:41:33;23.10;99.90
51327;DHT22;37412;52.836;6.362;2023-07-09T06:44:24;23.10;99.90
51327;DHT22;37412;52.836;6.362;2023-07-09T06:47:11;23.20;99.90
51327;DHT22;37412;52.836;6.362;2023-07-09T06:49:57;23.30;99.90
51327;DHT22;37412;52.836;6.362;2023-07-09T06:52:43;23.50;99.90
51327;DHT22;37412;52.836;6.362;2023-07-09T06:55:29;23.60;99.90
51327;DHT22;37412;52.836;6.362;2023-07-09T06:58:17;23.80;99.90
51327;DHT22;37412;52.836;6.362;2023-07-09T07:01:04;23.90;99.90
51327;DHT22;37412;52.836;6.362;2023-07-09T07:03:50;24.10;99.90
51327;DHT22;37412;52.836;6.362;2023-07-09T07:06:36;24.20;99.90
51327;DHT22;37412;52.836;6.362;2023-07-09T07:09:22;24.30;99.90
51327;DHT22;37412;52.836;6.362;2023-07-09T07:12:08;24.50;99.90
51327;DHT22;37412;52.836;6.362;2023-07-09T07:14:55;24.60;99.90
51327;DHT22;37412;52.836;6.362;2023-07-09T07:17:41;24.70;99.90
51327;DHT22;37412;52.836;6.362;2023-07-09T07:20:27;24.80;99.90
51327;DHT22;37412;52.836;6.362;2023-07-09T07:23:13;25.10;99.90
51327;DHT22;37412;52.836;6.362;2023-07-09T07:25:59;25.20;99.90
51327;DHT22;37412;52.836;6.362;2023-07-09T07:28:45;25.40;99.90
51327;DHT22;37412;52.836;6.362;2023-07-09T07:31:31;25.60;99.90
51327;DHT22;37412;52.836;6.362;2023-07-09T07:34:17;25.70;99.90
51327;DHT22;37412;52.836;6.362;2023-07-09T07:37:03;25.90;99.90
51327;DHT22;37412;52.836;6.362;2023-07-09T07:39:49;26.00;99.90
51327;DHT22;37412;52.836;6.362;2023-07-09T07:42:35;26.30;99.90
51327;DHT22;37412;52.836;6.362;2023-07-09T07:45:21;26.50;99.90
51327;DHT22;37412;52.836;6.362;2023-07-09T07:48:07;26.70;99.90
51327;DHT22;37412;52.836;6.362;2023-07-09T07:51:00;26.90;99.80
51327;DHT22;37412;52.836;6.362;2023-07-09T07:53:47;27.10;99.50
51327;DHT22;37412;52.836;6.362;2023-07-09T07:56:34;27.20;99.90
51327;DHT22;37412;52.836;6.362;2023-07-09T07:59:20;27.40;98.90
51327;DHT22;37412;52.836;6.362;2023-07-09T08:02:08;27.50;99.20
51327;DHT22;37412;52.836;6.362;2023-07-09T08:04:56;27.70;98.30
51327;DHT22;37412;52.836;6.362;2023-07-09T08:07:42;27.70;98.50
51327;DHT22;37412;52.836;6.362;2023-07-09T08:10:27;27.70;97.60
51327;DHT22;37412;52.836;6.362;2023-07-09T08:13:13;27.70;97.60
51327;DHT22;37412;52.836;6.362;2023-07-09T08:15:59;27.70;97.80
51327;DHT22;37412;52.836;6.362;2023-07-09T08:18:45;27.80;97.50
51327;DHT22;37412;52.836;6.362;2023-07-09T08:21:31;28.00;97.90
51327;DHT22;37412;52.836;6.362;2023-07-09T08:24:16;28.20;97.40
51327;DHT22;37412;52.836;6.362;2023-07-09T08:27:02;28.50;97.60
51327;DHT22;37412;52.836;6.362;2023-07-09T08:29:49;28.70;97.40
51327;DHT22;37412;52.836;6.362;2023-07-09T08:32:35;28.90;97.50
51327;DHT22;37412;52.836;6.362;2023-07-09T08:35:20;29.20;97.60
51327;DHT22;37412;52.836;6.362;2023-07-09T08:38:06;29.30;97.20
51327;DHT22;37412;52.836;6.362;2023-07-09T08:40:54;29.40;96.50
51327;DHT22;37412;52.836;6.362;2023-07-09T08:44:32;29.30;96.40
51327;DHT22;37412;52.836;6.362;2023-07-09T08:49:46;29.80;97.30
51327;DHT22;37412;52.836;6.362;2023-07-09T08:52:38;30.00;96.20
51327;DHT22;37412;52.836;6.362;2023-07-09T08:55:27;30.20;96.40
51327;DHT22;37412;52.836;6.362;2023-07-09T08:58:20;30.50;96.10
51327;DHT22;37412;52.836;6.362;2023-07-09T09:01:12;30.60;95.10
51327;DHT22;37412;52.836;6.362;2023-07-09T09:04:43;30.80;95.10
51327;DHT22;37412;52.836;6.362;2023-07-09T09:09:57;31.00;95.30
51327;DHT22;37412;52.836;6.362;2023-07-09T09:15:32;31.20;94.30
51327;DHT22;37412;52.836;6.362;2023-07-09T09:21:14;31.50;94.20
51327;DHT22;37412;52.836;6.362;2023-07-09T09:26:59;31.70;94.10
51327;DHT22;37412;52.836;6.362;2023-07-09T09:29:45;31.70;94.10
51327;DHT22;37412;52.836;6.362;2023-07-09T09:32:38;31.70;94.40
51327;DHT22;37412;52.836;6.362;2023-07-09T09:35:28;31.80;93.90
51327;DHT22;37412;52.836;6.362;2023-07-09T09:38:19;32.00;93.10
51327;DHT22;37412;52.836;6.362;2023-07-09T09:41:08;32.00;93.40
51327;DHT22;37412;52.836;6.362;2023-07-09T09:43:55;32.10;93.00
51327;DHT22;37412;52.836;6.362;2023-07-09T09:46:42;32.10;94.10
51327;DHT22;37412;52.836;6.362;2023-07-09T09:49:28;32.20;94.20
51327;DHT22;37412;52.836;6.362;2023-07-09T09:52:15;32.30;92.70
51327;DHT22;37412;52.836;6.362;2023-07-09T09:55:02;32.40;93.30
51327;DHT22;37412;52.836;6.362;2023-07-09T09:57:49;32.50;92.30
51327;DHT22;37412;52.836;6.362;2023-07-09T10:00:35;32.50;93.30
51327;DHT22;37412;52.836;6.362;2023-07-09T10:03:21;32.60;93.30
51327;DHT22;37412;52.836;6.362;2023-07-09T10:06:19;32.60;92.40
51327;DHT22;37412;52.836;6.362;2023-07-09T10:09:10;32.70;92.70
51327;DHT22;37412;52.836;6.362;2023-07-09T10:14:55;32.70;91.50
51327;DHT22;37412;52.836;6.362;2023-07-09T10:23:30;32.60;90.60
51327;DHT22;37412;52.836;6.362;2023-07-09T10:26:23;32.40;91.00
51327;DHT22;37412;52.836;6.362;2023-07-09T10:29:21;32.40;91.10
51327;DHT22;37412;52.836;6.362;2023-07-09T10:35:23;32.40;91.10
51327;DHT22;37412;52.836;6.362;2023-07-09T10:41:19;32.20;91.30
51327;DHT22;37412;52.836;6.362;2023-07-09T10:44:29;32.10;91.40
51327;DHT22;37412;52.836;6.362;2023-07-09T10:47:15;32.10;92.20
51327;DHT22;37412;52.836;6.362;2023-07-09T10:50:05;32.20;91.50
51327;DHT22;37412;52.836;6.362;2023-07-09T10:52:54;32.20;91.30
51327;DHT22;37412;52.836;6.362;2023-07-09T10:55:56;32.20;91.10
51327;DHT22;37412;52.836;6.362;2023-07-09T11:01:31;32.10;91.30
51327;DHT22;37412;52.836;6.362;2023-07-09T11:04:24;32.00;91.20
51327;DHT22;37412;52.836;6.362;2023-07-09T11:07:13;32.00;91.50
51327;DHT22;37412;52.836;6.362;2023-07-09T11:10:00;31.80;91.60
51327;DHT22;37412;52.836;6.362;2023-07-09T11:12:57;31.80;91.40
51327;DHT22;37412;52.836;6.362;2023-07-09T11:15:45;31.70;91.80
51327;DHT22;37412;52.836;6.362;2023-07-09T11:18:32;31.60;91.60
51327;DHT22;37412;52.836;6.362;2023-07-09T11:21:19;31.50;91.70
51327;DHT22;37412;52.836;6.362;2023-07-09T11:24:05;31.50;92.00
51327;DHT22;37412;52.836;6.362;2023-07-09T11:26:51;31.60;91.40
51327;DHT22;37412;52.836;6.362;2023-07-09T11:29:45;31.60;91.40
51327;DHT22;37412;52.836;6.362;2023-07-09T11:32:31;31.60;91.50
51327;DHT22;37412;52.836;6.362;2023-07-09T11:35:20;31.60;91.50
51327;DHT22;37412;52.836;6.362;2023-07-09T11:38:07;31.60;91.40
51327;DHT22;37412;52.836;6.362;2023-07-09T11:40:54;31.70;91.60
51327;DHT22;37412;52.836;6.362;2023-07-09T11:43:46;31.80;92.30
51327;DHT22;37412;52.836;6.362;2023-07-09T11:49:52;32.10;91.70
51327;DHT22;37412;52.836;6.362;2023-07-09T11:52:47;32.20;90.90
51327;DHT22;37412;52.836;6.362;2023-07-09T11:55:41;32.40;91.30
51327;DHT22;37412;52.836;6.362;2023-07-09T11:58:27;32.60;90.40
51327;DHT22;37412;52.836;6.362;2023-07-09T12:01:14;32.70;90.60
51327;DHT22;37412;52.836;6.362;2023-07-09T12:04:01;33.00;91.20
51327;DHT22;37412;52.836;6.362;2023-07-09T12:06:48;33.10;89.80
51327;DHT22;37412;52.836;6.362;2023-07-09T12:09:37;33.30;90.10
51327;DHT22;37412;52.836;6.362;2023-07-09T12:12:25;33.40;88.50
51327;DHT22;37412;52.836;6.362;2023-07-09T12:15:21;33.50;88.80
51327;DHT22;37412;52.836;6.362;2023-07-09T12:18:12;33.60;89.40
51327;DHT22;37412;52.836;6.362;2023-07-09T12:20:58;33.70;90.40
51327;DHT22;37412;52.836;6.362;2023-07-09T12:23:44;33.70;89.30
51327;DHT22;37412;52.836;6.362;2023-07-09T12:26:30;33.90;89.10
51327;DHT22;37412;52.836;6.362;2023-07-09T12:29:16;33.90;87.30
51327;DHT22;37412;52.836;6.362;2023-07-09T12:32:03;33.90;88.00
51327;DHT22;37412;52.836;6.362;2023-07-09T12:34:52;34.00;87.80
51327;DHT22;37412;52.836;6.362;2023-07-09T12:37:39;34.00;87.00
51327;DHT22;37412;52.836;6.362;2023-07-09T12:40:28;33.90;86.10
51327;DHT22;37412;52.836;6.362;2023-07-09T12:43:17;34.00;87.00
51327;DHT22;37412;52.836;6.362;2023-07-09T12:46:04;33.90;85.90
51327;DHT22;37412;52.836;6.362;2023-07-09T12:48:51;34.00;88.00
51327;DHT22;37412;52.836;6.362;2023-07-09T12:51:39;34.00;85.80
51327;DHT22;37412;52.836;6.362;2023-07-09T12:54:27;33.90;85.40
51327;DHT22;37412;52.836;6.362;2023-07-09T12:57:13;33.90;87.00
51327;DHT22;37412;52.836;6.362;2023-07-09T13:00:00;33.90;85.90
51327;DHT22;37412;52.836;6.362;2023-07-09T13:02:50;33.90;83.70
51327;DHT22;37412;52.836;6.362;2023-07-09T13:05:37;33.60;84.30
51327;DHT22;37412;52.836;6.362;2023-07-09T13:08:24;33.20;84.70
51327;DHT22;37412;52.836;6.362;2023-07-09T13:11:16;32.90;85.70
51327;DHT22;37412;52.836;6.362;2023-07-09T13:14:04;32.70;85.50
51327;DHT22;37412;52.836;6.362;2023-07-09T13:16:50;32.40;85.60
51327;DHT22;37412;52.836;6.362;2023-07-09T13:19:37;32.20;86.50
51327;DHT22;37412;52.836;6.362;2023-07-09T13:22:23;32.00;86.00
51327;DHT22;37412;52.836;6.362;2023-07-09T13:25:10;31.80;86.20
51327;DHT22;37412;52.836;6.362;2023-07-09T13:27:57;31.60;87.70
51327;DHT22;37412;52.836;6.362;2023-07-09T13:30:43;31.60;86.70
51327;DHT22;37412;52.836;6.362;2023-07-09T13:33:33;31.60;87.90
51327;DHT22;37412;52.836;6.362;2023-07-09T13:36:19;31.70;88.50
51327;DHT22;37412;52.836;6.362;2023-07-09T13:39:07;32.00;87.90
51327;DHT22;37412;52.836;6.362;2023-07-09T13:41:54;32.10;85.90
51327;DHT22;37412;52.836;6.362;2023-07-09T13:44:41;32.00;85.80
51327;DHT22;37412;52.836;6.362;2023-07-09T13:47:28;32.00;86.60
51327;DHT22;37412;52.836;6.362;2023-07-09T13:50:14;32.10;87.40
51327;DHT22;37412;52.836;6.362;2023-07-09T13:53:00;32.40;85.90
51327;DHT22;37412;52.836;6.362;2023-07-09T13:55:46;32.50;86.10
51327;DHT22;37412;52.836;6.362;2023-07-09T13:58:32;32.60;85.00
51327;DHT22;37412;52.836;6.362;2023-07-09T14:01:21;32.70;85.30
51327;DHT22;37412;52.836;6.362;2023-07-09T14:04:10;32.90;86.40
51327;DHT22;37412;52.836;6.362;2023-07-09T14:06:57;33.20;87.60
51327;DHT22;37412;52.836;6.362;2023-07-09T14:09:43;33.40;85.60
51327;DHT22;37412;52.836;6.362;2023-07-09T14:12:29;33.50;85.20
51327;DHT22;37412;52.836;6.362;2023-07-09T14:15:20;33.40;83.90
51327;DHT22;37412;52.836;6.362;2023-07-09T14:18:13;33.20;83.80
51327;DHT22;37412;52.836;6.362;2023-07-09T14:21:02;33.00;83.80
51327;DHT22;37412;52.836;6.362;2023-07-09T14:23:49;32.70;83.90
51327;DHT22;37412;52.836;6.362;2023-07-09T14:26:35;32.50;83.60
51327;DHT22;37412;52.836;6.362;2023-07-09T14:29:22;32.30;83.50
51327;DHT22;37412;52.836;6.362;2023-07-09T14:32:34;32.20;84.20
51327;DHT22;37412;52.836;6.362;2023-07-09T14:35:22;32.00;85.20
51327;DHT22;37412;52.836;6.362;2023-07-09T14:38:16;31.80;85.50
51327;DHT22;37412;52.836;6.362;2023-07-09T14:41:30;31.60;85.40
51327;DHT22;37412;52.836;6.362;2023-07-09T14:44:25;31.50;87.30
51327;DHT22;37412;52.836;6.362;2023-07-09T14:47:20;31.30;86.20
51327;DHT22;37412;52.836;6.362;2023-07-09T14:50:07;31.20;86.90
51327;DHT22;37412;52.836;6.362;2023-07-09T14:52:53;31.10;89.20
51327;DHT22;37412;52.836;6.362;2023-07-09T14:55:39;30.90;90.00
51327;DHT22;37412;52.836;6.362;2023-07-09T14:58:26;30.50;88.30
51327;DHT22;37412;52.836;6.362;2023-07-09T15:01:12;30.00;89.30
51327;DHT22;37412;52.836;6.362;2023-07-09T15:03:59;29.40;89.50
51327;DHT22;37412;52.836;6.362;2023-07-09T15:06:44;28.80;87.10
51327;DHT22;37412;52.836;6.362;2023-07-09T15:09:35;28.30;88.60
51327;DHT22;37412;52.836;6.362;2023-07-09T15:12:26;27.80;88.60
51327;DHT22;37412;52.836;6.362;2023-07-09T15:15:25;27.30;88.50
51327;DHT22;37412;52.836;6.362;2023-07-09T15:18:14;26.90;89.00
51327;DHT22;37412;52.836;6.362;2023-07-09T15:21:02;26.50;90.80
51327;DHT22;37412;52.836;6.362;2023-07-09T15:23:48;26.20;91.30
51327;DHT22;37412;52.836;6.362;2023-07-09T15:26:34;25.80;91.80
51327;DHT22;37412;52.836;6.362;2023-07-09T15:29:20;25.50;92.50
51327;DHT22;37412;52.836;6.362;2023-07-09T15:32:06;25.20;92.90
51327;DHT22;37412;52.836;6.362;2023-07-09T15:34:52;24.90;93.00
51327;DHT22;37412;52.836;6.362;2023-07-09T15:37:38;24.70;93.00
51327;DHT22;37412;52.836;6.362;2023-07-09T15:40:25;24.40;93.60
51327;DHT22;37412;52.836;6.362;2023-07-09T15:43:14;24.20;93.70
51327;DHT22;37412;52.836;6.362;2023-07-09T15:46:00;24.10;94.10
51327;DHT22;37412;52.836;6.362;2023-07-09T15:48:47;24.00;94.30
51327;DHT22;37412;52.836;6.362;2023-07-09T15:51:33;23.90;94.50
51327;DHT22;37412;52.836;6.362;2023-07-09T15:54:20;23.80;95.10
51327;DHT22;37412;52.836;6.362;2023-07-09T15:57:08;23.80;95.20
51327;DHT22;37412;52.836;6.362;2023-07-09T15:59:57;23.70;95.80
51327;DHT22;37412;52.836;6.362;2023-07-09T16:02:43;23.60;95.80
51327;DHT22;37412;52.836;6.362;2023-07-09T16:05:29;23.60;95.80
51327;DHT22;37412;52.836;6.362;2023-07-09T16:08:15;23.60;96.30
51327;DHT22;37412;52.836;6.362;2023-07-09T16:11:04;23.50;96.40
51327;DHT22;37412;52.836;6.362;2023-07-09T16:13:50;23.50;96.20
51327;DHT22;37412;52.836;6.362;2023-07-09T16:16:37;23.40;96.60
51327;DHT22;37412;52.836;6.362;2023-07-09T16:19:24;23.40;97.00
51327;DHT22;37412;52.836;6.362;2023-07-09T16:22:10;23.30;97.50
51327;DHT22;37412;52.836;6.362;2023-07-09T16:24:57;23.30;97.70
51327;DHT22;37412;52.836;6.362;2023-07-09T16:27:44;23.20;98.20
51327;DHT22;37412;52.836;6.362;2023-07-09T16:30:30;23.10;99.20
51327;DHT22;37412;52.836;6.362;2023-07-09T16:33:16;23.00;99.90
51327;DHT22;37412;52.836;6.362;2023-07-09T16:36:02;22.90;99.90
51327;DHT22;37412;52.836;6.362;2023-07-09T16:38:49;22.80;99.90
51327;DHT22;37412;52.836;6.362;2023-07-09T16:41:35;22.80;99.90
51327;DHT22;37412;52.836;6.362;2023-07-09T16:44:21;22.70;99.90
51327;DHT22;37412;52.836;6.362;2023-07-09T16:47:17;22.60;99.90
51327;DHT22;37412;52.836;6.362;2023-07-09T16:50:04;22.50;99.90
51327;DHT22;37412;52.836;6.362;2023-07-09T16:52:50;22.50;99.90
51327;DHT22;37412;52.836;6.362;2023-07-09T16:55:37;22.50;99.90
51327;DHT22;37412;52.836;6.362;2023-07-09T16:58:25;22.50;99.90
51327;DHT22;37412;52.836;6.362;2023-07-09T17:01:13;22.60;99.90
51327;DHT22;37412;52.836;6.362;2023-07-09T17:03:59;22.70;99.90
51327;DHT22;37412;52.836;6.362;2023-07-09T17:06:45;22.70;99.90
51327;DHT22;37412;52.836;6.362;2023-07-09T17:09:31;22.70;99.90
51327;DHT22;37412;52.836;6.362;2023-07-09T17:12:16;22.70;99.90
51327;DHT22;37412;52.836;6.362;2023-07-09T17:15:16;22.60;99.90
51327;DHT22;37412;52.836;6.362;2023-07-09T17:18:04;22.50;99.90
51327;DHT22;37412;52.836;6.362;2023-07-09T17:20:58;22.40;99.90
51327;DHT22;37412;52.836;6.362;2023-07-09T17:23:44;22.60;99.90
51327;DHT22;37412;52.836;6.362;2023-07-09T17:26:30;22.70;99.90
51327;DHT22;37412;52.836;6.362;2023-07-09T17:29:16;22.70;99.90
51327;DHT22;37412;52.836;6.362;2023-07-09T17:32:02;22.60;99.90
51327;DHT22;37412;52.836;6.362;2023-07-09T17:34:48;22.50;99.90
51327;DHT22;37412;52.836;6.362;2023-07-09T17:37:34;22.60;99.90
51327;DHT22;37412;52.836;6.362;2023-07-09T17:40:30;22.50;99.90
51327;DHT22;37412;52.836;6.362;2023-07-09T17:43:17;22.50;99.90
51327;DHT22;37412;52.836;6.362;2023-07-09T17:46:04;22.60;99.90
51327;DHT22;37412;52.836;6.362;2023-07-09T17:48:50;22.60;99.90
51327;DHT22;37412;52.836;6.362;2023-07-09T17:51:36;22.80;99.90
51327;DHT22;37412;52.836;6.362;2023-07-09T17:54:22;22.90;99.90
51327;DHT22;37412;52.836;6.362;2023-07-09T17:57:18;22.90;99.90
51327;DHT22;37412;52.836;6.362;2023-07-09T18:00:05;22.90;99.90
51327;DHT22;37412;52.836;6.362;2023-07-09T18:02:59;23.00;99.90
51327;DHT22;37412;52.836;6.362;2023-07-09T18:05:45;23.00;99.90
51327;DHT22;37412;52.836;6.362;2023-07-09T18:08:31;23.10;99.90
51327;DHT22;37412;52.836;6.362;2023-07-09T18:11:19;23.00;99.90
51327;DHT22;37412;52.836;6.362;2023-07-09T18:14:16;22.90;99.90
51327;DHT22;37412;52.836;6.362;2023-07-09T18:17:13;22.90;99.90